createdAt,value
2023-01-21T00:00:40.839Z,28.42
2023-01-21T00:03:08.370Z,28.83
2023-01-21T00:05:35.619Z,22.33
2023-01-21T00:08:02.994Z,19.55
2023-01-21T00:10:30.330Z,22.05
2023-01-21T00:12:57.548Z,20.83
2023-01-21T00:15:24.732Z,20.58
2023-01-21T00:17:55.151Z,21.20
2023-01-21T00:20:22.334Z,20.60
2023-01-21T00:22:49.556Z,21.33
2023-01-21T00:25:16.733Z,21.23
2023-01-21T00:27:43.958Z,21.00
2023-01-21T00:30:11.433Z,21.17
2023-01-21T00:32:38.701Z,19.27
2023-01-21T00:35:06.640Z,19.40
2023-01-21T00:37:33.830Z,20.33
2023-01-21T00:40:01.133Z,20.02
2023-01-21T00:42:28.784Z,21.15
2023-01-21T00:44:57.419Z,22.27
2023-01-21T00:47:24.899Z,20.52
2023-01-21T00:49:51.978Z,20.45
2023-01-21T00:52:19.216Z,19.13
2023-01-21T00:54:46.660Z,21.13
2023-01-21T00:57:14.034Z,18.35
2023-01-21T00:59:41.354Z,19.60
2023-01-21T01:02:09.108Z,21.85
2023-01-21T01:04:36.654Z,21.15
2023-01-21T01:07:03.897Z,18.38
2023-01-21T01:09:31.073Z,20.20
2023-01-21T01:11:58.250Z,19.98
2023-01-21T01:14:25.410Z,19.90
2023-01-21T01:16:52.561Z,20.23
2023-01-21T01:19:19.717Z,19.13
2023-01-21T01:21:46.808Z,19.27
2023-01-21T01:24:13.947Z,20.25
2023-01-21T01:26:42.333Z,20.05
2023-01-21T01:29:12.282Z,18.67
2023-01-21T01:31:39.791Z,19.92
2023-01-21T01:34:07.528Z,18.58
2023-01-21T01:36:34.695Z,19.63
2023-01-21T01:39:01.950Z,18.52
2023-01-21T01:41:30.030Z,18.52
2023-01-21T01:44:01.688Z,18.63
2023-01-21T01:46:30.549Z,16.92
2023-01-21T01:49:11.175Z,18.33
2023-01-21T01:51:43.798Z,16.50
2023-01-21T01:56:40.394Z,17.70
2023-01-21T01:59:07.921Z,18.35
2023-01-21T02:01:35.249Z,18.45
2023-01-21T02:04:04.342Z,16.92
2023-01-21T02:06:31.715Z,17.80
2023-01-21T02:08:58.900Z,17.65
2023-01-21T02:11:26.171Z,18.60
2023-01-21T02:13:58.482Z,16.48
2023-01-21T02:16:34.842Z,18.42
2023-01-21T02:19:20.490Z,17.58
2023-01-21T02:22:00.573Z,17.83
2023-01-21T02:24:46.613Z,17.73
2023-01-21T02:27:30.415Z,18.52
2023-01-21T02:30:24.434Z,17.50
2023-01-21T02:33:10.113Z,19.73
2023-01-21T02:35:51.245Z,20.10
2023-01-21T02:38:31.155Z,22.45
2023-01-21T02:41:06.853Z,19.50
2023-01-21T02:43:47.889Z,22.08
2023-01-21T02:46:38.487Z,20.67
2023-01-21T02:49:10.310Z,23.77
2023-01-21T02:51:37.427Z,22.42
2023-01-21T02:54:14.872Z,22.58
2023-01-21T02:56:42.260Z,22.27
2023-01-21T02:59:09.895Z,21.92
2023-01-21T03:01:42.982Z,21.88
2023-01-21T03:04:20.483Z,20.65
2023-01-21T03:06:53.425Z,23.70
2023-01-21T03:09:23.672Z,22.13
2023-01-21T03:12:03.033Z,21.88
2023-01-21T03:14:51.573Z,22.05
2023-01-21T03:17:33.739Z,21.23
2023-01-21T03:20:13.165Z,20.85
2023-01-21T03:22:40.817Z,22.70
2023-01-21T03:25:09.514Z,24.33
2023-01-21T03:27:38.426Z,21.63
2023-01-21T03:30:09.711Z,20.85
2023-01-21T03:32:37.141Z,22.13
2023-01-21T03:35:06.259Z,23.92
2023-01-21T03:37:36.729Z,24.58
2023-01-21T03:40:04.034Z,22.17
2023-01-21T03:42:31.370Z,21.60
2023-01-21T03:44:58.872Z,20.17
2023-01-21T03:47:33.721Z,20.83
2023-01-21T03:50:19.739Z,21.17
2023-01-21T03:52:47.509Z,23.15
2023-01-21T03:55:15.371Z,23.35
2023-01-21T03:57:42.557Z,22.63
2023-01-21T04:00:10.305Z,23.55
2023-01-21T04:02:37.489Z,20.35
2023-01-21T04:05:04.768Z,20.70
2023-01-21T04:07:31.982Z,20.58
2023-01-21T04:09:59.249Z,21.73
2023-01-21T04:12:26.365Z,21.33
2023-01-21T04:14:53.571Z,23.08
2023-01-21T04:17:20.941Z,20.70
2023-01-21T04:19:48.106Z,21.52
2023-01-21T04:22:15.311Z,21.65
2023-01-21T04:24:42.522Z,22.10
2023-01-21T04:27:09.795Z,20.35
2023-01-21T04:29:36.891Z,22.13
2023-01-21T04:32:04.376Z,21.02
2023-01-21T04:34:31.521Z,19.85
2023-01-21T04:36:58.652Z,22.15
2023-01-21T04:39:25.896Z,20.17
2023-01-21T04:41:53.074Z,20.75
2023-01-21T04:44:20.195Z,19.67
2023-01-21T04:46:47.332Z,19.73
2023-01-21T04:49:14.743Z,19.67
2023-01-21T04:51:42.047Z,20.17
2023-01-21T04:54:10.567Z,19.15
2023-01-21T04:56:37.766Z,17.52
2023-01-21T04:59:04.984Z,20.10
2023-01-21T05:01:32.220Z,18.98
2023-01-21T05:03:59.314Z,19.52
2023-01-21T05:06:26.451Z,20.23
2023-01-21T05:08:53.510Z,18.13
2023-01-21T05:11:20.947Z,18.35
2023-01-21T05:13:48.152Z,17.23
2023-01-21T05:16:15.489Z,18.20
2023-01-21T05:18:44.499Z,18.63
2023-01-21T05:21:12.939Z,16.83
2023-01-21T05:23:40.092Z,17.98
2023-01-21T05:26:07.288Z,18.70
2023-01-21T05:28:34.530Z,16.55
2023-01-21T05:31:02.425Z,17.27
2023-01-21T05:33:34.731Z,16.75
2023-01-21T05:36:02.457Z,18.42
2023-01-21T05:38:29.996Z,18.92
2023-01-21T05:40:58.079Z,19.08
2023-01-21T05:43:25.391Z,18.83
2023-01-21T05:45:52.812Z,18.88
2023-01-21T05:48:19.915Z,16.33
2023-01-21T05:50:47.013Z,18.27
2023-01-21T05:53:14.359Z,17.60
2023-01-21T05:55:42.000Z,18.90
2023-01-21T05:58:09.856Z,18.75
2023-01-21T06:00:37.032Z,17.55
2023-01-21T06:03:04.563Z,19.40
2023-01-21T06:05:31.755Z,17.80
2023-01-21T06:07:58.847Z,19.42
2023-01-21T06:10:25.930Z,19.10
2023-01-21T06:12:53.119Z,19.17
2023-01-21T06:15:20.635Z,19.48
2023-01-21T06:17:47.733Z,20.48
2023-01-21T06:20:15.136Z,19.00
2023-01-21T06:22:42.485Z,21.08
2023-01-21T06:25:10.100Z,19.73
2023-01-21T06:27:38.313Z,19.23
2023-01-21T06:30:08.854Z,20.25
2023-01-21T06:32:36.352Z,21.42
2023-01-21T06:35:04.239Z,20.25
2023-01-21T06:37:31.387Z,20.05
2023-01-21T06:39:58.595Z,19.83
2023-01-21T06:42:25.982Z,20.38
2023-01-21T06:44:53.185Z,19.48
2023-01-21T06:47:20.544Z,22.38
2023-01-21T06:49:47.650Z,19.00
2023-01-21T06:52:14.756Z,18.15
2023-01-21T06:54:43.275Z,19.27
2023-01-21T06:57:10.764Z,19.67
2023-01-21T06:59:37.862Z,19.63
2023-01-21T07:02:04.968Z,18.38
2023-01-21T07:04:32.266Z,19.67
2023-01-21T07:06:59.459Z,19.77
2023-01-21T07:09:26.623Z,20.33
2023-01-21T07:11:55.435Z,18.27
2023-01-21T07:14:22.579Z,19.17
2023-01-21T07:16:49.802Z,19.52
2023-01-21T07:19:16.943Z,19.20
2023-01-21T07:21:44.200Z,20.25
2023-01-21T07:24:11.310Z,19.30
2023-01-21T07:26:38.471Z,20.55
2023-01-21T07:29:06.617Z,20.77
2023-01-21T07:31:34.137Z,22.65
2023-01-21T07:34:01.642Z,21.67
2023-01-21T07:36:29.017Z,20.58
2023-01-21T07:38:56.220Z,21.17
2023-01-21T07:41:23.926Z,21.58
2023-01-21T07:43:51.817Z,19.95
2023-01-21T07:46:22.846Z,21.52
2023-01-21T07:48:51.643Z,20.23
2023-01-21T07:51:22.534Z,20.45
2023-01-21T07:53:49.896Z,21.67
2023-01-21T07:56:18.421Z,22.83
2023-01-21T07:58:47.012Z,20.75
2023-01-21T08:01:14.267Z,21.40
2023-01-21T08:03:41.456Z,21.38
2023-01-21T08:06:08.655Z,21.70
2023-01-21T08:08:36.018Z,21.92
2023-01-21T08:11:03.313Z,21.00
2023-01-21T08:13:30.511Z,22.52
2023-01-21T08:15:57.867Z,22.35
2023-01-21T08:18:26.639Z,24.05
2023-01-21T08:20:57.082Z,25.58
2023-01-21T08:23:24.495Z,29.60
2023-01-21T08:25:51.667Z,33.08
2023-01-21T08:28:18.799Z,26.83
2023-01-21T08:30:46.005Z,25.85
2023-01-21T08:33:13.209Z,27.98
2023-01-21T08:35:40.486Z,23.98
2023-01-21T08:38:07.745Z,22.85
2023-01-21T08:40:34.913Z,23.95
2023-01-21T08:43:03.096Z,22.83
2023-01-21T08:45:30.525Z,21.75
2023-01-21T08:47:57.733Z,20.58
2023-01-21T08:50:25.120Z,21.88
2023-01-21T08:52:56.007Z,21.33
2023-01-21T08:55:27.496Z,22.75
2023-01-21T08:57:55.839Z,20.08
2023-01-21T09:00:24.114Z,20.90
2023-01-21T09:02:51.991Z,20.27
2023-01-21T09:05:19.436Z,22.88
2023-01-21T09:07:46.930Z,20.58
2023-01-21T09:10:34.575Z,21.23
2023-01-21T09:13:08.377Z,21.88
2023-01-21T09:15:39.188Z,21.13
2023-01-21T09:18:06.302Z,19.35
2023-01-21T09:20:33.417Z,22.88
2023-01-21T09:23:00.700Z,23.67
2023-01-21T09:25:27.907Z,21.48
2023-01-21T09:27:55.059Z,22.33
2023-01-21T09:30:22.294Z,22.23
2023-01-21T09:32:49.433Z,20.60
2023-01-21T09:35:16.762Z,20.48
2023-01-21T09:37:44.077Z,20.75
2023-01-21T09:40:16.359Z,21.15
2023-01-21T09:42:43.873Z,22.05
2023-01-21T09:45:14.361Z,21.38
2023-01-21T09:47:43.185Z,23.30
2023-01-21T09:50:15.038Z,25.15
2023-01-21T09:52:43.000Z,23.33
2023-01-21T09:55:15.414Z,21.35
2023-01-21T10:00:28.347Z,21.20
2023-01-21T10:03:03.146Z,22.23
2023-01-21T10:05:39.538Z,24.45
2023-01-21T10:08:12.074Z,23.90
2023-01-21T10:10:48.031Z,22.98
2023-01-21T10:13:23.424Z,22.92
2023-01-21T10:15:57.040Z,23.48
2023-01-21T10:18:25.610Z,23.05
2023-01-21T10:21:05.000Z,21.98
2023-01-21T10:23:32.132Z,22.80
2023-01-21T10:26:02.608Z,23.58
2023-01-21T10:28:30.660Z,22.73
2023-01-21T10:31:03.839Z,22.33
2023-01-21T10:33:33.361Z,22.05
2023-01-21T10:36:00.507Z,21.98
2023-01-21T10:38:39.666Z,20.92
2023-01-21T10:41:22.112Z,22.13
2023-01-21T10:43:49.293Z,20.50
2023-01-21T10:46:21.118Z,21.83
2023-01-21T10:48:57.026Z,20.42
2023-01-21T10:51:24.214Z,21.08
2023-01-21T10:53:59.056Z,22.58
2023-01-21T10:56:44.853Z,21.38
2023-01-21T10:59:14.315Z,21.25
2023-01-21T11:01:47.198Z,21.15
2023-01-21T11:04:23.351Z,21.08
2023-01-21T11:07:16.531Z,21.02
2023-01-21T11:09:45.891Z,21.27
2023-01-21T11:12:14.471Z,20.67
2023-01-21T11:14:41.645Z,19.65
2023-01-21T11:17:11.282Z,20.10
2023-01-21T11:19:38.467Z,19.85
2023-01-21T11:22:05.759Z,20.35
2023-01-21T11:24:44.238Z,25.25
2023-01-21T11:27:40.633Z,20.92
2023-01-21T11:30:31.455Z,20.10
2023-01-21T11:32:55.477Z,20.98
2023-01-21T11:35:24.400Z,19.65
2023-01-21T11:37:51.556Z,22.15
2023-01-21T11:40:20.867Z,20.95
2023-01-21T11:42:49.620Z,22.55
2023-01-21T11:45:32.244Z,21.48
2023-01-21T11:47:59.901Z,21.30
2023-01-21T11:50:38.284Z,19.23
2023-01-21T11:53:12.285Z,21.63
2023-01-21T11:55:39.481Z,21.35
2023-01-21T11:58:07.126Z,19.25
2023-01-21T12:00:35.505Z,21.55
2023-01-21T12:03:04.502Z,21.00
2023-01-21T12:05:36.472Z,23.27
2023-01-21T12:08:05.456Z,23.00
2023-01-21T12:10:43.666Z,24.48
2023-01-21T12:13:29.823Z,22.63
2023-01-21T12:16:03.471Z,21.30
2023-01-21T12:18:36.733Z,21.80
2023-01-21T12:21:15.909Z,22.50
2023-01-21T12:23:43.487Z,24.98
2023-01-21T12:26:13.590Z,24.20
2023-01-21T12:28:46.706Z,23.38
2023-01-21T12:31:23.680Z,22.52
2023-01-21T12:34:02.971Z,22.55
2023-01-21T12:36:37.618Z,21.63
2023-01-21T12:39:13.892Z,21.35
2023-01-21T12:41:42.561Z,22.02
2023-01-21T12:44:28.432Z,23.10
2023-01-21T12:46:58.950Z,21.75
2023-01-21T12:49:28.918Z,22.20
2023-01-21T12:52:02.467Z,21.17
2023-01-21T12:54:44.412Z,20.45
2023-01-21T12:57:18.502Z,22.97
2023-01-21T12:59:53.030Z,22.75
2023-01-21T13:02:39.036Z,21.40
2023-01-21T13:05:06.240Z,21.70
2023-01-21T13:07:51.995Z,21.73
2023-01-21T13:10:22.598Z,21.88
2023-01-21T13:13:05.182Z,21.73
2023-01-21T13:15:34.347Z,21.15
2023-01-21T13:18:33.791Z,19.60
2023-01-21T13:21:28.448Z,21.80
2023-01-21T13:24:16.886Z,21.38
2023-01-21T13:27:02.981Z,20.48
2023-01-21T13:29:32.141Z,22.30
2023-01-21T13:32:14.582Z,21.98
2023-01-21T13:34:55.397Z,21.15
2023-01-21T13:37:33.844Z,20.20
2023-01-21T13:40:21.313Z,21.00
2023-01-21T13:42:57.674Z,21.70
2023-01-21T13:45:30.699Z,19.75
2023-01-21T13:48:04.567Z,22.00
2023-01-21T13:50:43.918Z,19.45
2023-01-21T13:53:18.552Z,20.63
2023-01-21T13:56:01.029Z,18.67
2023-01-21T13:58:37.400Z,18.60
2023-01-21T14:01:08.728Z,19.00
2023-01-21T14:03:42.694Z,20.92
2023-01-21T14:06:09.861Z,18.90
2023-01-21T14:08:44.045Z,20.27
2023-01-21T14:11:31.672Z,19.58
2023-01-21T14:14:25.422Z,20.52
2023-01-21T14:17:04.838Z,20.35
2023-01-21T14:19:32.015Z,19.40
2023-01-21T14:22:19.115Z,19.55
2023-01-21T14:24:55.673Z,19.85
2023-01-21T14:27:34.823Z,20.17
2023-01-21T14:30:09.884Z,19.50
2023-01-21T14:32:42.061Z,21.67
2023-01-21T14:35:18.263Z,20.08
2023-01-21T14:37:48.443Z,20.13
2023-01-21T14:40:24.842Z,20.67
2023-01-21T14:42:53.136Z,20.40
2023-01-21T14:45:22.408Z,19.98
2023-01-21T14:47:51.118Z,19.88
2023-01-21T14:50:36.819Z,20.95
2023-01-21T14:53:10.604Z,19.42
2023-01-21T14:55:37.781Z,19.08
2023-01-21T14:58:04.989Z,20.30
2023-01-21T15:00:34.384Z,20.67
2023-01-21T15:03:07.404Z,19.92
2023-01-21T15:05:36.478Z,19.98
2023-01-21T15:08:06.408Z,17.83
2023-01-21T15:10:38.897Z,18.13
2023-01-21T15:13:08.330Z,17.73
2023-01-21T15:15:40.367Z,19.40
2023-01-21T15:18:10.265Z,18.95
2023-01-21T15:20:43.503Z,17.25
2023-01-21T15:23:16.909Z,17.23
2023-01-21T15:26:02.847Z,18.00
2023-01-21T15:28:33.354Z,17.20
2023-01-21T15:31:02.790Z,18.23
2023-01-21T15:33:30.971Z,16.50
2023-01-21T15:35:59.345Z,18.00
2023-01-21T15:38:27.024Z,17.65
2023-01-21T15:40:56.109Z,18.02
2023-01-21T15:43:25.985Z,19.88
2023-01-21T15:46:02.036Z,17.50
2023-01-21T15:48:48.107Z,16.83
2023-01-21T15:51:33.892Z,17.33
2023-01-21T15:54:01.043Z,16.50
2023-01-21T15:56:31.827Z,15.30
2023-01-21T15:58:59.086Z,17.35
2023-01-21T16:01:37.208Z,17.23
2023-01-21T16:04:26.050Z,16.48
2023-01-21T16:07:12.028Z,16.92
2023-01-21T16:09:45.834Z,15.48
2023-01-21T16:12:21.880Z,15.63
2023-01-21T16:14:54.840Z,14.32
2023-01-21T16:17:22.099Z,15.55
2023-01-21T16:19:50.862Z,15.30
2023-01-21T16:22:21.016Z,13.98
2023-01-21T16:24:50.455Z,14.20
2023-01-21T16:27:17.749Z,14.00
2023-01-21T16:29:44.922Z,14.48
2023-01-21T16:32:19.491Z,13.85
2023-01-21T16:34:47.936Z,13.45
2023-01-21T16:37:22.033Z,14.52
2023-01-21T16:39:49.258Z,13.85
2023-01-21T16:42:25.823Z,12.90
2023-01-21T16:44:53.208Z,13.73
2023-01-21T16:47:23.698Z,13.27
2023-01-21T16:49:50.890Z,13.18
2023-01-21T16:52:20.350Z,13.10
2023-01-21T16:54:48.735Z,13.20
2023-01-21T16:57:15.843Z,14.45
2023-01-21T16:59:44.819Z,11.43
2023-01-21T17:02:20.040Z,11.57
2023-01-21T17:04:47.601Z,11.75
2023-01-21T17:07:17.032Z,11.30
2023-01-21T17:09:44.223Z,10.13
2023-01-21T17:12:20.347Z,9.00
2023-01-21T17:14:47.489Z,9.90
2023-01-21T17:17:19.102Z,11.38
2023-01-21T17:19:46.182Z,10.23
2023-01-21T17:22:23.592Z,9.18
2023-01-21T17:24:59.103Z,9.38
2023-01-21T17:27:26.578Z,9.90
2023-01-21T17:29:53.768Z,9.88
2023-01-21T17:32:25.708Z,9.88
2023-01-21T17:35:12.004Z,9.73
2023-01-21T17:37:43.805Z,9.98
2023-01-21T17:40:27.534Z,8.95
2023-01-21T17:42:54.883Z,9.73
2023-01-21T17:45:32.669Z,9.93
2023-01-21T17:48:11.888Z,8.63
2023-01-21T17:50:45.155Z,9.52
2023-01-21T17:53:18.591Z,9.98
2023-01-21T17:55:56.341Z,9.52
2023-01-21T17:58:32.474Z,9.25
2023-01-21T18:01:03.839Z,10.20
2023-01-21T18:03:31.004Z,8.35
2023-01-21T18:05:58.511Z,9.48
2023-01-21T18:08:25.757Z,10.18
2023-01-21T18:10:53.141Z,9.68
2023-01-21T18:13:21.462Z,9.30
2023-01-21T18:15:51.516Z,9.57
2023-01-21T18:18:21.260Z,10.23
2023-01-21T18:20:48.571Z,9.82
2023-01-21T18:23:18.003Z,9.38
2023-01-21T18:25:49.129Z,9.25
2023-01-21T18:28:20.242Z,9.20
2023-01-21T18:30:47.659Z,10.18
2023-01-21T18:33:14.947Z,10.00
2023-01-21T18:35:46.331Z,9.73
2023-01-21T18:38:14.927Z,8.35
2023-01-21T18:40:42.217Z,12.45
2023-01-21T18:43:09.888Z,10.13
2023-01-21T18:45:37.057Z,10.63
2023-01-21T18:48:04.248Z,9.38
2023-01-21T18:50:31.613Z,9.90
2023-01-21T18:52:58.872Z,9.77
2023-01-21T18:55:27.165Z,9.30
2023-01-21T18:57:55.671Z,8.75
2023-01-21T19:00:27.543Z,11.07
2023-01-21T19:02:55.534Z,9.25
2023-01-21T19:05:24.462Z,9.02
2023-01-21T19:07:51.770Z,10.82
2023-01-21T19:10:20.271Z,10.55
2023-01-21T19:12:47.743Z,11.40
2023-01-21T19:15:15.755Z,11.30
2023-01-21T19:17:43.114Z,10.65
2023-01-21T19:20:16.533Z,10.35
2023-01-21T19:22:43.893Z,11.93
2023-01-21T19:25:11.514Z,10.90
2023-01-21T19:27:40.379Z,10.63
2023-01-21T19:30:21.663Z,12.23
2023-01-21T19:32:49.479Z,11.60
2023-01-21T19:35:17.645Z,11.55
2023-01-21T19:37:49.331Z,11.80
2023-01-21T19:40:18.283Z,13.13
2023-01-21T19:42:45.771Z,12.05
2023-01-21T19:45:13.581Z,12.05
2023-01-21T19:47:41.791Z,12.00
2023-01-21T19:50:14.288Z,12.45
2023-01-21T19:52:41.399Z,11.43
2023-01-21T19:55:09.120Z,11.75
2023-01-21T19:57:36.748Z,12.15
2023-01-21T20:00:03.977Z,10.60
2023-01-21T20:02:31.983Z,12.20
2023-01-21T20:05:01.316Z,11.75
2023-01-21T20:07:28.514Z,12.95
2023-01-21T20:09:55.581Z,12.52
2023-01-21T20:12:23.876Z,11.98
2023-01-21T20:14:51.127Z,13.27
2023-01-21T20:17:18.323Z,12.85
2023-01-21T20:19:45.540Z,12.60
2023-01-21T20:22:13.345Z,12.65
2023-01-21T20:24:40.469Z,12.35
2023-01-21T20:27:09.601Z,12.50
2023-01-21T20:29:44.415Z,12.45
2023-01-21T20:32:11.840Z,12.68
2023-01-21T20:34:39.017Z,18.40
2023-01-21T20:37:06.126Z,24.75
2023-01-21T20:39:40.746Z,21.02
2023-01-21T20:42:09.074Z,13.73
2023-01-21T20:44:39.550Z,13.55
2023-01-21T20:47:08.235Z,13.23
2023-01-21T20:49:35.552Z,13.20
2023-01-21T20:52:03.010Z,13.85
2023-01-21T20:54:30.153Z,13.88
2023-01-21T20:56:57.334Z,14.32
2023-01-21T20:59:24.638Z,14.75
2023-01-21T21:01:51.793Z,14.23
2023-01-21T21:04:18.986Z,14.73
2023-01-21T21:06:46.296Z,14.45
2023-01-21T21:09:13.382Z,14.60
2023-01-21T21:11:40.763Z,15.80
2023-01-21T21:14:08.055Z,16.40
2023-01-21T21:16:35.764Z,15.13
2023-01-21T21:19:03.960Z,16.00
2023-01-21T21:21:31.137Z,17.65
2023-01-21T21:23:58.356Z,16.45
2023-01-21T21:26:26.789Z,18.10
2023-01-21T21:29:03.028Z,18.85
2023-01-21T21:31:38.834Z,18.73
2023-01-21T21:34:06.286Z,17.98
2023-01-21T21:36:33.621Z,18.08
2023-01-21T21:39:00.868Z,18.60
2023-01-21T21:41:46.976Z,17.05
2023-01-21T21:44:14.229Z,18.10
2023-01-21T21:47:00.623Z,20.08
2023-01-21T21:49:28.222Z,17.75
2023-01-21T21:51:59.988Z,17.67
2023-01-21T21:54:27.172Z,19.17
2023-01-21T21:56:54.343Z,18.88
2023-01-21T21:59:21.639Z,19.13
2023-01-21T22:01:48.755Z,17.38
2023-01-21T22:04:16.360Z,19.02
2023-01-21T22:06:43.728Z,18.50
2023-01-21T22:09:10.987Z,19.08
2023-01-21T22:11:38.173Z,18.05
2023-01-21T22:14:05.336Z,17.92
2023-01-21T22:16:33.031Z,17.80
2023-01-21T22:19:00.653Z,18.48
2023-01-21T22:21:33.485Z,19.13
2023-01-21T22:24:01.402Z,18.75
2023-01-21T22:26:29.715Z,18.30
2023-01-21T22:28:56.870Z,19.50
2023-01-21T22:31:27.945Z,18.92
2023-01-21T22:33:55.662Z,19.45
2023-01-21T22:36:24.028Z,19.00
2023-01-21T22:38:51.586Z,20.02
2023-01-21T22:41:20.145Z,20.50
2023-01-21T22:43:50.760Z,21.30
2023-01-21T22:46:22.310Z,20.92
2023-01-21T22:48:49.627Z,19.98
2023-01-21T22:51:18.644Z,19.52
2023-01-21T22:53:46.097Z,19.90
2023-01-21T22:56:14.158Z,19.17
2023-01-21T22:58:41.462Z,19.55
2023-01-21T23:01:09.101Z,18.58
2023-01-21T23:03:37.542Z,20.38
2023-01-21T23:06:09.138Z,19.13
2023-01-21T23:08:39.398Z,20.35
2023-01-21T23:11:13.135Z,20.70
2023-01-21T23:13:40.439Z,19.77
2023-01-21T23:16:08.877Z,19.77
2023-01-21T23:18:40.077Z,18.83
2023-01-21T23:21:08.490Z,18.60
2023-01-21T23:23:38.714Z,19.60
2023-01-21T23:26:06.597Z,16.92
2023-01-21T23:28:34.501Z,18.10
2023-01-21T23:31:08.877Z,18.20
2023-01-21T23:33:36.153Z,16.83
2023-01-21T23:36:03.406Z,16.83
2023-01-21T23:38:30.671Z,16.45
2023-01-21T23:40:58.147Z,15.27
2023-01-21T23:43:26.486Z,15.18
2023-01-21T23:45:54.485Z,13.95
2023-01-21T23:48:22.029Z,15.80
2023-01-21T23:50:49.993Z,16.27
2023-01-21T23:53:17.366Z,15.57
2023-01-21T23:55:44.447Z,15.73
2023-01-21T23:58:11.531Z,14.45
